createdAt,value
2024-01-21T00:01:37.150Z,2.49
2024-01-21T00:04:05.112Z,2.60
2024-01-21T00:06:32.908Z,2.57
2024-01-21T00:09:00.658Z,2.58
2024-01-21T00:11:28.406Z,2.49
2024-01-21T00:13:57.825Z,2.63
2024-01-21T00:16:26.854Z,2.64
2024-01-21T00:18:54.706Z,2.69
2024-01-21T00:21:22.559Z,2.68
2024-01-21T00:23:50.329Z,2.74
2024-01-21T00:26:18.082Z,2.76
2024-01-21T00:28:46.021Z,2.76
2024-01-21T00:31:13.736Z,2.80
2024-01-21T00:33:42.891Z,2.82
2024-01-21T00:36:12.924Z,2.80
2024-01-21T00:38:42.731Z,2.80
2024-01-21T00:41:15.087Z,2.80
2024-01-21T00:43:42.861Z,2.82
2024-01-21T00:46:10.647Z,2.79
2024-01-21T00:48:38.511Z,2.82
2024-01-21T00:51:07.831Z,2.85
2024-01-21T00:53:35.873Z,2.89
2024-01-21T00:56:03.701Z,2.91
2024-01-21T00:58:31.526Z,2.91
2024-01-21T01:00:59.600Z,2.97
2024-01-21T01:03:27.468Z,3.03
2024-01-21T01:05:55.303Z,3.03
2024-01-21T01:08:24.436Z,3.01
2024-01-21T01:10:52.137Z,3.06
2024-01-21T01:13:19.921Z,3.00
2024-01-21T01:15:47.777Z,3.07
2024-01-21T01:18:16.626Z,3.02
2024-01-21T01:20:44.495Z,3.04
2024-01-21T01:23:12.276Z,3.04
2024-01-21T01:25:41.397Z,2.99
2024-01-21T01:28:09.138Z,3.05
2024-01-21T01:30:37.697Z,3.03
2024-01-21T01:33:06.169Z,3.06
2024-01-21T01:35:33.992Z,3.07
2024-01-21T01:38:01.749Z,3.02
2024-01-21T01:40:30.082Z,3.00
2024-01-21T01:43:03.490Z,3.01
2024-01-21T01:45:31.441Z,2.99
2024-01-21T01:47:59.570Z,2.99
2024-01-21T01:50:27.981Z,2.94
2024-01-21T01:52:55.788Z,2.92
2024-01-21T01:55:23.690Z,2.82
2024-01-21T01:57:51.764Z,2.88
2024-01-21T02:00:21.184Z,2.87
2024-01-21T02:02:49.043Z,2.90
2024-01-21T02:05:16.854Z,2.86
2024-01-21T02:07:44.635Z,2.89
2024-01-21T02:10:12.520Z,2.81
2024-01-21T02:12:43.020Z,2.87
2024-01-21T02:15:12.062Z,2.76
2024-01-21T02:17:41.449Z,2.76
2024-01-21T02:20:10.891Z,2.71
2024-01-21T02:22:41.266Z,2.83
2024-01-21T02:25:10.914Z,2.80
2024-01-21T02:27:39.884Z,2.83
2024-01-21T02:30:08.767Z,2.75
2024-01-21T02:32:36.632Z,2.78
2024-01-21T02:35:04.474Z,2.80
2024-01-21T02:37:32.479Z,2.78
2024-01-21T02:40:00.243Z,2.78
2024-01-21T02:42:29.522Z,2.78
2024-01-21T02:44:57.440Z,2.71
2024-01-21T02:47:25.788Z,2.78
2024-01-21T02:49:53.915Z,2.82
2024-01-21T02:52:21.683Z,2.85
2024-01-21T02:54:49.482Z,2.83
2024-01-21T02:57:17.330Z,2.80
2024-01-21T02:59:46.534Z,2.84
2024-01-21T03:02:14.339Z,2.82
2024-01-21T03:04:42.120Z,2.74
2024-01-21T03:07:09.805Z,2.77
2024-01-21T03:09:37.597Z,2.77
2024-01-21T03:12:05.592Z,2.73
2024-01-21T03:14:33.320Z,2.68
2024-01-21T03:17:04.182Z,2.70
2024-01-21T03:19:32.013Z,2.67
2024-01-21T03:21:59.844Z,2.65
2024-01-21T03:24:27.699Z,2.62
2024-01-21T03:26:55.479Z,2.64
2024-01-21T03:29:23.194Z,2.70
2024-01-21T03:31:51.033Z,2.66
2024-01-21T03:34:20.205Z,2.72
2024-01-21T03:36:48.009Z,2.76
2024-01-21T03:39:15.821Z,2.73
2024-01-21T03:41:43.670Z,2.71
2024-01-21T03:44:11.429Z,2.72
2024-01-21T03:46:40.306Z,2.72
2024-01-21T03:49:08.132Z,2.77
2024-01-21T03:51:37.328Z,2.75
2024-01-21T03:54:05.110Z,2.75
2024-01-21T03:56:32.890Z,2.79
2024-01-21T03:59:00.666Z,2.76
2024-01-21T04:01:28.595Z,2.79
2024-01-21T04:03:56.402Z,2.81
2024-01-21T04:06:24.294Z,2.82
2024-01-21T04:08:53.371Z,2.82
2024-01-21T04:11:21.090Z,2.80
2024-01-21T04:13:48.896Z,2.81
2024-01-21T04:16:16.637Z,2.74
2024-01-21T04:18:44.485Z,2.73
2024-01-21T04:21:12.392Z,2.76
2024-01-21T04:23:40.373Z,2.79
2024-01-21T04:26:09.603Z,2.81
2024-01-21T04:28:38.804Z,2.88
2024-01-21T04:31:07.075Z,2.88
2024-01-21T04:33:34.872Z,2.92
2024-01-21T04:36:02.613Z,2.92
2024-01-21T04:38:30.321Z,2.98
2024-01-21T04:40:58.004Z,3.00
2024-01-21T04:43:27.079Z,3.02
2024-01-21T04:45:56.622Z,3.05
2024-01-21T04:48:24.483Z,3.10
2024-01-21T04:50:52.479Z,3.03
2024-01-21T04:53:20.238Z,3.07
2024-01-21T04:55:47.933Z,3.19
2024-01-21T04:58:15.642Z,3.21
2024-01-21T05:00:44.806Z,3.21
2024-01-21T05:03:12.674Z,3.26
2024-01-21T05:05:40.456Z,3.28
2024-01-21T05:08:08.612Z,3.26
2024-01-21T05:10:37.498Z,3.31
2024-01-21T05:13:05.718Z,3.30
2024-01-21T05:15:33.593Z,3.31
2024-01-21T05:18:02.714Z,3.26
2024-01-21T05:20:30.458Z,3.28
2024-01-21T05:22:58.172Z,3.17
2024-01-21T05:25:26.014Z,3.22
2024-01-21T05:27:53.786Z,3.20
2024-01-21T05:30:21.630Z,3.18
2024-01-21T05:32:52.072Z,3.13
2024-01-21T05:35:23.829Z,3.18
2024-01-21T05:37:51.721Z,3.15
2024-01-21T05:40:19.812Z,3.17
2024-01-21T05:42:47.608Z,3.16
2024-01-21T05:45:15.334Z,3.19
2024-01-21T05:47:43.148Z,3.17
2024-01-21T05:50:11.531Z,3.10
2024-01-21T05:52:40.600Z,3.09
2024-01-21T05:55:09.209Z,3.11
2024-01-21T05:57:38.677Z,3.05
2024-01-21T06:00:07.598Z,3.14
2024-01-21T06:02:37.593Z,3.09
2024-01-21T06:05:05.779Z,3.04
2024-01-21T06:07:33.705Z,3.09
2024-01-21T06:10:04.525Z,3.11
2024-01-21T06:12:32.281Z,3.15
2024-01-21T06:15:00.046Z,3.15
2024-01-21T06:17:27.795Z,3.18
2024-01-21T06:19:55.515Z,3.12
2024-01-21T06:22:23.275Z,3.14
2024-01-21T06:24:51.118Z,3.17
2024-01-21T06:27:20.279Z,3.14
2024-01-21T06:29:48.013Z,3.09
2024-01-21T06:32:15.813Z,3.11
2024-01-21T06:34:43.706Z,3.09
2024-01-21T06:37:11.505Z,3.10
2024-01-21T06:39:39.311Z,3.09
2024-01-21T06:42:07.604Z,3.05
2024-01-21T06:44:37.232Z,3.06
2024-01-21T06:47:06.046Z,3.09
2024-01-21T06:49:33.838Z,3.07
2024-01-21T06:52:01.575Z,3.03
2024-01-21T06:54:29.357Z,3.05
2024-01-21T06:56:57.054Z,3.08
2024-01-21T06:59:24.808Z,3.11
2024-01-21T07:01:53.929Z,3.07
2024-01-21T07:04:21.817Z,3.09
2024-01-21T07:06:53.650Z,3.02
2024-01-21T07:09:21.527Z,3.02
2024-01-21T07:11:49.309Z,3.06
2024-01-21T07:14:17.645Z,3.08
2024-01-21T07:16:45.372Z,3.10
2024-01-21T07:19:14.802Z,3.06
2024-01-21T07:21:42.672Z,3.07
2024-01-21T07:24:10.405Z,3.12
2024-01-21T07:26:38.189Z,3.08
2024-01-21T07:29:06.005Z,3.12
2024-01-21T07:31:33.942Z,3.09
2024-01-21T07:34:01.810Z,3.07
2024-01-21T07:36:31.138Z,3.00
2024-01-21T07:38:58.981Z,3.01
2024-01-21T07:41:26.663Z,3.02
2024-01-21T07:43:54.471Z,2.99
2024-01-21T07:46:22.286Z,3.02
2024-01-21T07:48:50.381Z,3.00
2024-01-21T07:51:19.473Z,3.01
2024-01-21T07:53:48.664Z,3.02
2024-01-21T07:56:16.469Z,2.96
2024-01-21T07:58:44.260Z,2.97
2024-01-21T08:01:13.243Z,2.96
2024-01-21T08:03:42.049Z,3.01
2024-01-21T08:06:10.051Z,3.01
2024-01-21T08:08:37.865Z,3.00
2024-01-21T08:11:07.302Z,3.01
2024-01-21T08:13:35.043Z,3.06
2024-01-21T08:16:02.849Z,3.00
2024-01-21T08:18:31.944Z,3.03
2024-01-21T08:21:00.576Z,2.95
2024-01-21T08:23:31.197Z,3.04
2024-01-21T08:25:58.998Z,3.09
2024-01-21T08:28:28.054Z,3.07
2024-01-21T08:30:56.093Z,3.08
2024-01-21T08:33:24.001Z,3.15
2024-01-21T08:35:51.892Z,3.18
2024-01-21T08:38:19.768Z,3.22
2024-01-21T08:40:53.551Z,3.34
2024-01-21T08:43:21.310Z,3.28
2024-01-21T08:45:53.455Z,3.38
2024-01-21T08:48:21.408Z,3.39
2024-01-21T08:50:49.821Z,3.43
2024-01-21T08:53:17.740Z,3.48
2024-01-21T08:55:45.910Z,3.51
2024-01-21T08:58:13.699Z,3.53
2024-01-21T09:00:41.532Z,3.58
2024-01-21T09:03:14.106Z,3.53
2024-01-21T09:05:42.262Z,3.66
2024-01-21T09:08:10.140Z,3.69
2024-01-21T09:10:38.017Z,3.67
2024-01-21T09:13:06.696Z,3.67
2024-01-21T09:15:36.333Z,3.72
2024-01-21T09:18:04.494Z,3.73
2024-01-21T09:20:33.674Z,3.72
2024-01-21T09:23:01.563Z,3.77
2024-01-21T09:25:32.353Z,3.79
2024-01-21T09:28:00.340Z,3.78
2024-01-21T09:30:28.268Z,3.82
2024-01-21T09:32:56.153Z,3.78
2024-01-21T09:35:24.000Z,3.78
2024-01-21T09:37:53.287Z,3.80
2024-01-21T09:40:21.068Z,3.85
2024-01-21T09:42:51.081Z,3.89
2024-01-21T09:45:18.964Z,3.96
2024-01-21T09:47:51.867Z,3.94
2024-01-21T09:50:22.290Z,4.04
2024-01-21T09:52:50.119Z,4.09
2024-01-21T09:55:19.823Z,4.05
2024-01-21T09:57:48.205Z,4.19
2024-01-21T10:00:16.874Z,4.31
2024-01-21T10:02:45.386Z,4.33
2024-01-21T10:05:13.382Z,4.46
2024-01-21T10:07:42.108Z,4.46
2024-01-21T10:10:10.425Z,4.53
2024-01-21T10:12:39.863Z,4.40
2024-01-21T10:15:08.508Z,4.52
2024-01-21T10:17:36.547Z,4.59
2024-01-21T10:20:05.979Z,4.68
2024-01-21T10:22:33.962Z,4.69
2024-01-21T10:25:04.092Z,4.74
2024-01-21T10:27:32.462Z,4.81
2024-01-21T10:30:01.591Z,4.75
2024-01-21T10:32:29.374Z,4.82
2024-01-21T10:34:58.153Z,4.84
2024-01-21T10:37:26.729Z,4.80
2024-01-21T10:39:56.146Z,4.85
2024-01-21T10:42:24.221Z,4.77
2024-01-21T10:44:52.451Z,4.83
2024-01-21T10:47:22.450Z,4.89
2024-01-21T10:50:01.716Z,4.90
2024-01-21T10:52:29.728Z,4.86
2024-01-21T10:55:00.403Z,4.84
2024-01-21T10:57:29.034Z,4.82
2024-01-21T10:59:57.305Z,4.97
2024-01-21T11:02:26.493Z,4.94
2024-01-21T11:04:54.278Z,4.83
2024-01-21T11:07:22.368Z,4.81
2024-01-21T11:09:50.717Z,4.90
2024-01-21T11:12:19.496Z,4.94
2024-01-21T11:14:47.842Z,4.93
2024-01-21T11:17:18.745Z,4.92
2024-01-21T11:19:52.865Z,4.88
2024-01-21T11:22:23.351Z,4.86
2024-01-21T11:24:52.790Z,4.70
2024-01-21T11:27:23.375Z,4.68
2024-01-21T11:29:51.761Z,4.65
2024-01-21T11:32:25.417Z,4.61
2024-01-21T11:34:55.117Z,4.57
2024-01-21T11:37:23.929Z,4.56
2024-01-21T11:39:51.708Z,4.54
2024-01-21T11:42:19.652Z,4.58
2024-01-21T11:44:47.524Z,4.55
2024-01-21T11:47:15.382Z,4.57
2024-01-21T11:49:43.202Z,4.65
2024-01-21T11:52:12.471Z,4.65
2024-01-21T11:54:40.992Z,4.58
2024-01-21T11:57:09.362Z,4.65
2024-01-21T11:59:37.450Z,4.69
2024-01-21T12:02:10.602Z,4.74
2024-01-21T12:04:39.224Z,4.74
2024-01-21T12:07:07.951Z,4.89
2024-01-21T12:09:37.247Z,4.94
2024-01-21T12:12:08.674Z,5.05
2024-01-21T12:14:36.595Z,5.11
2024-01-21T12:17:04.535Z,5.16
2024-01-21T12:19:32.353Z,5.05
2024-01-21T12:22:00.450Z,5.09
2024-01-21T12:24:28.465Z,5.16
2024-01-21T12:26:57.700Z,5.09
2024-01-21T12:29:26.021Z,5.08
2024-01-21T12:31:54.215Z,4.99
2024-01-21T12:34:22.113Z,4.93
2024-01-21T12:36:51.437Z,4.99
2024-01-21T12:39:23.175Z,5.05
2024-01-21T12:41:51.374Z,5.09
2024-01-21T12:44:20.450Z,5.01
2024-01-21T12:46:48.861Z,5.15
2024-01-21T12:49:17.261Z,5.23
2024-01-21T12:51:46.753Z,5.29
2024-01-21T12:54:15.411Z,5.25
2024-01-21T12:56:43.336Z,5.28
2024-01-21T12:59:12.988Z,5.29
2024-01-21T13:01:42.358Z,5.32
2024-01-21T13:04:11.601Z,5.30
2024-01-21T13:06:39.656Z,5.34
2024-01-21T13:09:09.091Z,5.33
2024-01-21T13:11:36.999Z,5.26
2024-01-21T13:14:04.883Z,5.35
2024-01-21T13:16:34.696Z,5.36
2024-01-21T13:19:03.985Z,5.37
2024-01-21T13:21:32.231Z,5.38
2024-01-21T13:23:59.945Z,5.34
2024-01-21T13:26:27.684Z,5.34
2024-01-21T13:29:09.729Z,5.35
2024-01-21T13:31:39.278Z,5.38
2024-01-21T13:34:10.571Z,5.39
2024-01-21T13:36:38.828Z,5.36
2024-01-21T13:39:06.954Z,5.40
2024-01-21T13:41:34.946Z,5.38
2024-01-21T13:44:02.844Z,5.37
2024-01-21T13:46:30.619Z,5.43
2024-01-21T13:48:58.530Z,5.50
2024-01-21T13:51:27.796Z,5.46
2024-01-21T13:53:55.677Z,5.42
2024-01-21T13:56:24.576Z,5.49
2024-01-21T13:58:52.883Z,5.45
2024-01-21T14:01:20.899Z,5.53
2024-01-21T14:03:48.720Z,5.53
2024-01-21T14:06:20.052Z,5.52
2024-01-21T14:08:49.122Z,5.47
2024-01-21T14:11:16.865Z,5.56
2024-01-21T14:13:45.508Z,5.52
2024-01-21T14:16:13.354Z,5.59
2024-01-21T14:18:42.149Z,5.53
2024-01-21T14:21:10.124Z,5.52
2024-01-21T14:23:38.598Z,5.48
2024-01-21T14:26:10.560Z,5.49
2024-01-21T14:28:42.207Z,5.56
2024-01-21T14:31:10.662Z,5.57
2024-01-21T14:33:39.208Z,5.62
2024-01-21T14:36:09.750Z,5.63
2024-01-21T14:38:39.188Z,5.65
2024-01-21T14:41:08.708Z,5.62
2024-01-21T14:43:36.622Z,5.56
2024-01-21T14:46:04.731Z,5.58
2024-01-21T14:48:33.108Z,5.58
2024-01-21T14:51:01.010Z,5.54
2024-01-21T14:53:28.804Z,5.48
2024-01-21T14:55:56.581Z,5.47
2024-01-21T14:58:25.755Z,5.49
2024-01-21T15:00:53.719Z,5.54
2024-01-21T15:03:21.566Z,5.46
2024-01-21T15:05:49.555Z,5.47
2024-01-21T15:08:20.108Z,5.49
2024-01-21T15:10:47.900Z,5.46
2024-01-21T15:13:16.374Z,5.48
2024-01-21T15:15:45.614Z,5.51
2024-01-21T15:18:23.475Z,5.51
2024-01-21T15:20:55.800Z,5.54
2024-01-21T15:23:23.626Z,5.55
2024-01-21T15:25:51.321Z,5.56
2024-01-21T15:28:19.188Z,5.55
2024-01-21T15:30:48.540Z,5.61
2024-01-21T15:33:16.555Z,5.67
2024-01-21T15:35:44.280Z,5.69
2024-01-21T15:38:12.278Z,5.70
2024-01-21T15:40:42.424Z,5.62
2024-01-21T15:43:10.385Z,5.75
2024-01-21T15:45:40.376Z,5.77
2024-01-21T15:48:10.086Z,5.79
2024-01-21T15:50:38.107Z,5.78
2024-01-21T15:53:06.145Z,5.83
2024-01-21T15:55:33.890Z,5.79
2024-01-21T15:58:01.757Z,5.77
2024-01-21T16:00:34.118Z,5.68
2024-01-21T16:03:04.772Z,5.76
2024-01-21T16:05:34.303Z,5.71
2024-01-21T16:08:02.110Z,5.68
2024-01-21T16:10:30.003Z,5.65
2024-01-21T16:12:57.889Z,5.63
2024-01-21T16:15:34.325Z,5.62
2024-01-21T16:18:08.244Z,5.62
2024-01-21T16:20:39.220Z,5.57
2024-01-21T16:23:07.767Z,5.53
2024-01-21T16:25:36.266Z,5.49
2024-01-21T16:28:04.075Z,5.51
2024-01-21T16:30:31.862Z,5.51
2024-01-21T16:32:59.614Z,5.46
2024-01-21T16:35:27.506Z,5.50
2024-01-21T16:37:56.700Z,5.45
2024-01-21T16:40:24.689Z,5.44
2024-01-21T16:42:52.467Z,5.51
2024-01-21T16:45:21.919Z,5.51
2024-01-21T16:47:49.914Z,5.49
2024-01-21T16:50:17.860Z,5.51
2024-01-21T16:52:47.602Z,5.50
2024-01-21T16:55:19.899Z,5.55
2024-01-21T16:57:47.803Z,5.44
2024-01-21T17:00:22.353Z,5.44
2024-01-21T17:02:51.082Z,5.46
2024-01-21T17:05:19.091Z,5.49
2024-01-21T17:07:49.693Z,5.50
2024-01-21T17:10:23.453Z,5.52
2024-01-21T17:12:53.012Z,5.47
2024-01-21T17:15:20.793Z,5.48
2024-01-21T17:17:51.125Z,5.44
2024-01-21T17:20:18.867Z,5.46
2024-01-21T17:22:47.021Z,5.50
2024-01-21T17:25:14.719Z,5.49
2024-01-21T17:27:43.838Z,5.51
2024-01-21T17:30:13.018Z,5.48
2024-01-21T17:32:41.111Z,5.49
2024-01-21T17:35:09.499Z,5.49
2024-01-21T17:37:37.330Z,5.52
2024-01-21T17:40:07.288Z,5.54
2024-01-21T17:42:35.590Z,5.55
2024-01-21T17:45:08.212Z,5.53
2024-01-21T17:47:36.322Z,5.52
2024-01-21T17:50:04.809Z,5.56
2024-01-21T17:52:32.677Z,5.58
2024-01-21T17:55:00.666Z,5.57
2024-01-21T17:57:29.112Z,5.58
2024-01-21T17:59:56.880Z,5.60
2024-01-21T18:02:29.090Z,5.57
2024-01-21T18:04:59.598Z,5.61
2024-01-21T18:07:27.460Z,5.60
2024-01-21T18:09:55.196Z,5.58
2024-01-21T18:12:22.923Z,5.62
2024-01-21T18:14:50.770Z,5.59
2024-01-21T18:17:19.818Z,5.56
2024-01-21T18:19:48.909Z,5.57
2024-01-21T18:22:18.841Z,5.58
2024-01-21T18:24:51.540Z,5.57
2024-01-21T18:27:19.632Z,5.58
2024-01-21T18:29:47.514Z,5.55
2024-01-21T18:32:15.336Z,5.50
2024-01-21T18:34:44.337Z,5.51
2024-01-21T18:37:13.564Z,5.48
2024-01-21T18:39:41.302Z,5.49
2024-01-21T18:42:09.198Z,5.48
2024-01-21T18:44:37.801Z,5.47
2024-01-21T18:47:05.972Z,5.46
2024-01-21T18:49:34.095Z,5.47
2024-01-21T18:52:05.880Z,5.44
2024-01-21T18:54:39.708Z,5.44
2024-01-21T18:57:11.819Z,5.51
2024-01-21T18:59:44.121Z,5.51
2024-01-21T19:02:12.606Z,5.59
2024-01-21T19:04:44.886Z,5.55
2024-01-21T19:07:17.020Z,5.56
2024-01-21T19:09:46.637Z,5.62
2024-01-21T19:12:17.396Z,5.65
2024-01-21T19:14:45.389Z,5.63
2024-01-21T19:17:13.672Z,5.66
2024-01-21T19:19:41.547Z,5.66
2024-01-21T19:22:09.320Z,5.63
2024-01-21T19:24:37.071Z,5.65
2024-01-21T19:27:07.023Z,5.64
2024-01-21T19:29:34.807Z,5.59
2024-01-21T19:32:03.964Z,5.59
2024-01-21T19:34:31.726Z,5.63
2024-01-21T19:36:59.607Z,5.64
2024-01-21T19:39:27.408Z,5.63
2024-01-21T19:41:55.139Z,5.58
2024-01-21T19:44:25.940Z,5.59
2024-01-21T19:46:53.678Z,5.62
2024-01-21T19:49:21.538Z,5.64
2024-01-21T19:51:49.408Z,5.62
2024-01-21T19:54:17.967Z,5.59
2024-01-21T19:56:46.223Z,5.58
2024-01-21T19:59:14.114Z,5.67
2024-01-21T20:01:44.773Z,5.60
2024-01-21T20:04:13.884Z,5.72
2024-01-21T20:06:42.070Z,5.75
2024-01-21T20:09:10.422Z,5.79
2024-01-21T20:11:40.118Z,5.79
2024-01-21T20:14:10.097Z,5.81
2024-01-21T20:16:40.060Z,5.83
2024-01-21T20:19:09.598Z,5.82
2024-01-21T20:21:38.739Z,5.85
2024-01-21T20:24:07.493Z,5.83
2024-01-21T20:26:35.514Z,5.85
2024-01-21T20:29:03.311Z,5.88
2024-01-21T20:31:31.075Z,5.83
2024-01-21T20:33:59.126Z,5.87
2024-01-21T20:36:28.548Z,5.86
2024-01-21T20:38:56.254Z,5.90
2024-01-21T20:41:24.049Z,5.92
2024-01-21T20:43:51.823Z,5.93
2024-01-21T20:46:19.686Z,5.95
2024-01-21T20:48:48.697Z,5.99
2024-01-21T20:51:16.617Z,6.11
2024-01-21T20:53:49.898Z,6.10
2024-01-21T20:56:21.087Z,6.18
2024-01-21T20:58:49.095Z,6.20
2024-01-21T21:01:18.013Z,6.27
2024-01-21T21:03:46.019Z,6.28
2024-01-21T21:06:13.959Z,6.28
2024-01-21T21:08:42.440Z,6.34
2024-01-21T21:11:11.712Z,6.38
2024-01-21T21:13:40.070Z,6.41
2024-01-21T21:16:08.794Z,6.46
2024-01-21T21:18:36.954Z,6.34
2024-01-21T21:21:05.309Z,6.41
2024-01-21T21:23:33.137Z,6.46
2024-01-21T21:26:00.926Z,6.46
2024-01-21T21:28:30.119Z,6.46
2024-01-21T21:30:57.966Z,6.48
2024-01-21T21:33:28.788Z,6.41
2024-01-21T21:35:58.298Z,6.48
2024-01-21T21:38:26.282Z,6.42
2024-01-21T21:40:54.576Z,6.45
2024-01-21T21:43:22.613Z,6.44
2024-01-21T21:45:52.178Z,6.42
2024-01-21T21:48:21.032Z,6.38
2024-01-21T21:50:50.132Z,6.38
2024-01-21T21:53:18.465Z,6.49
2024-01-21T21:55:48.013Z,6.51
2024-01-21T21:58:16.360Z,6.54
2024-01-21T22:00:44.413Z,6.59
2024-01-21T22:03:14.038Z,6.59
2024-01-21T22:05:42.088Z,6.59
2024-01-21T22:08:09.951Z,6.61
2024-01-21T22:10:39.029Z,6.67
2024-01-21T22:13:07.419Z,6.69
2024-01-21T22:15:36.995Z,6.73
2024-01-21T22:18:05.156Z,6.71
2024-01-21T22:20:35.170Z,6.73
2024-01-21T22:23:03.183Z,6.79
2024-01-21T22:25:31.006Z,6.78
2024-01-21T22:27:58.710Z,6.83
2024-01-21T22:30:26.638Z,6.81
2024-01-21T22:32:56.478Z,6.85
2024-01-21T22:35:24.431Z,6.88
2024-01-21T22:37:53.585Z,6.90
2024-01-21T22:40:21.296Z,6.90
2024-01-21T22:42:48.995Z,6.91
2024-01-21T22:45:16.925Z,6.96
2024-01-21T22:47:44.916Z,7.02
2024-01-21T22:50:12.870Z,6.95
2024-01-21T22:52:40.612Z,7.01
2024-01-21T22:55:10.562Z,7.04
2024-01-21T22:57:38.714Z,7.07
2024-01-21T23:00:12.068Z,7.14
2024-01-21T23:02:39.940Z,7.13
2024-01-21T23:05:08.194Z,7.13
2024-01-21T23:07:35.993Z,7.20
2024-01-21T23:10:03.885Z,7.23
2024-01-21T23:12:32.952Z,7.20
2024-01-21T23:15:00.822Z,7.25
2024-01-21T23:17:28.714Z,7.30
2024-01-21T23:19:56.438Z,7.35
2024-01-21T23:22:24.343Z,7.42
2024-01-21T23:24:52.119Z,7.41
2024-01-21T23:27:19.907Z,7.40
2024-01-21T23:29:49.281Z,7.46
2024-01-21T23:32:17.126Z,7.52
2024-01-21T23:34:44.856Z,7.52
2024-01-21T23:37:13.097Z,7.65
2024-01-21T23:39:40.827Z,7.66
2024-01-21T23:42:08.813Z,7.69
2024-01-21T23:44:36.669Z,7.71
2024-01-21T23:47:06.013Z,7.74
2024-01-21T23:49:33.798Z,7.73
2024-01-21T23:52:01.577Z,7.81
2024-01-21T23:54:29.333Z,7.86
2024-01-21T23:56:57.450Z,7.86
2024-01-21T23:59:25.269Z,7.87
